Time;durP1;ratioP1;P1;durP2;ratioP2;P2;SDS_P1;SDS_P2;PMS_P1;PMS_P2;Temp;Humidity;BMP_temperature;BMP_pressure;BME280_temperature;BME280_humidity;BME280_pressure;Samples;Min_cycle;Max_cycle;Signal;HPM_P1;HPM_P2
2022/07/12 00:01:42;;;;;;;1.30;1.20;;;22.10;49.30;;;;;;5112242;27;20476;-89
2022/07/12 00:04:34;;;;;;;1.30;1.20;;;22.20;49.60;;;;;;5108055;27;20525;-89
2022/07/12 00:07:02;;;;;;;1.90;1.57;;;22.10;49.60;;;;;;5143748;27;20460;-89
2022/07/12 00:09:30;;;;;;;2.30;1.53;;;22.10;49.80;;;;;;5102571;27;20502;-89
2022/07/12 00:11:58;;;;;;;1.50;1.40;;;22.00;49.90;;;;;;5125386;27;20443;-89
2022/07/12 00:14:25;;;;;;;1.30;1.20;;;22.00;50.70;;;;;;5142479;27;20468;-89
2022/07/12 00:16:54;;;;;;;1.50;1.40;;;22.00;50.20;;;;;;5122418;27;20532;-88
2022/07/12 00:19:21;;;;;;;1.60;1.50;;;22.00;51.40;;;;;;5127741;27;20479;-91
2022/07/12 00:21:48;;;;;;;1.73;1.33;;;21.90;50.60;;;;;;5141864;27;20642;-91
2022/07/12 00:24:15;;;;;;;1.50;1.40;;;21.70;49.90;;;;;;5125667;27;20457;-90
2022/07/12 00:26:42;;;;;;;1.70;1.60;;;21.50;50.20;;;;;;5142961;27;20445;-90
2022/07/12 00:29:10;;;;;;;2.87;2.00;;;21.50;50.60;;;;;;5126177;27;20472;-89
2022/07/12 00:31:38;;;;;;;1.70;1.60;;;21.50;50.80;;;;;;5137811;27;20483;-89
2022/07/12 00:34:32;;;;;;;5.47;1.83;;;21.50;50.80;;;;;;5125271;27;20444;-89
2022/07/12 00:36:59;;;;;;;1.40;1.30;;;21.50;50.80;;;;;;5128016;27;20458;-88
2022/07/12 00:39:27;;;;;;;1.60;1.50;;;21.30;51.00;;;;;;5108656;27;20457;-89
2022/07/12 00:41:54;;;;;;;1.97;1.70;;;21.30;50.80;;;;;;5126667;27;20825;-88
2022/07/12 00:44:21;;;;;;;1.63;1.53;;;21.40;50.40;;;;;;5106090;27;20487;-91
2022/07/12 00:46:48;;;;;;;1.70;1.50;;;21.40;50.80;;;;;;5089024;27;20490;-89
2022/07/12 00:49:16;;;;;;;1.60;1.50;;;21.40;50.90;;;;;;5106886;27;20984;-89
2022/07/12 00:51:45;;;;;;;1.60;1.50;;;21.40;50.90;;;;;;5121330;27;20489;-90
2022/07/12 00:54:16;;;;;;;1.77;1.67;;;21.40;51.10;;;;;;5122513;27;20818;-88
2022/07/12 00:56:44;;;;;;;2.33;1.53;;;21.40;51.10;;;;;;5115092;27;20532;-89
2022/07/12 00:59:13;;;;;;;2.63;1.40;;;21.40;50.80;;;;;;5104079;27;20459;-90
2022/07/12 01:01:41;;;;;;;1.73;1.50;;;21.40;50.70;;;;;;5130345;27;20466;-89
2022/07/12 01:04:09;;;;;;;2.20;1.50;;;21.40;50.60;;;;;;5127181;27;20477;-89
2022/07/12 01:06:36;;;;;;;1.50;1.40;;;21.40;50.70;;;;;;5134860;27;20459;-89
2022/07/12 01:09:06;;;;;;;1.50;1.40;;;21.30;51.10;;;;;;5144767;27;20525;-88
2022/07/12 01:11:34;;;;;;;5.07;1.80;;;21.30;51.00;;;;;;5142696;27;20441;-89
2022/07/12 01:14:01;;;;;;;2.00;1.80;;;21.30;51.10;;;;;;5114013;27;20465;-89
2022/07/12 01:16:28;;;;;;;1.60;1.50;;;21.20;51.10;;;;;;5131191;27;20544;-89
2022/07/12 01:18:56;;;;;;;2.33;1.60;;;21.20;51.30;;;;;;5131387;27;21004;-89
2022/07/12 01:21:24;;;;;;;1.97;1.67;;;21.20;51.30;;;;;;5127777;27;20845;-89
2022/07/12 01:23:52;;;;;;;2.37;1.60;;;21.20;51.40;;;;;;5150538;27;20443;-89
2022/07/12 01:26:19;;;;;;;1.50;1.40;;;21.10;51.30;;;;;;5091958;27;20456;-91
2022/07/12 01:28:47;;;;;;;1.43;1.33;;;21.10;51.50;;;;;;5125688;27;20509;-89
2022/07/12 01:31:14;;;;;;;2.20;1.70;;;21.10;51.30;;;;;;5117561;27;20444;-88
2022/07/12 01:33:41;;;;;;;1.87;1.53;;;21.10;51.40;;;;;;5114478;27;20528;-89
2022/07/12 01:36:09;;;;;;;1.87;1.77;;;21.00;51.30;;;;;;5111801;27;21083;-89
2022/07/12 01:38:36;;;;;;;2.00;1.53;;;21.00;51.10;;;;;;5151147;27;20559;-91
2022/07/12 01:41:05;;;;;;;2.37;1.87;;;21.00;51.20;;;;;;5114763;27;20437;-91
2022/07/12 01:43:32;;;;;;;1.77;1.67;;;20.70;52.00;;;;;;5129197;27;20455;-90
2022/07/12 01:45:59;;;;;;;1.93;1.83;;;20.70;51.60;;;;;;5116121;27;20451;-89
2022/07/12 01:48:26;;;;;;;1.70;1.60;;;20.80;51.50;;;;;;5147696;27;20522;-89
2022/07/12 01:50:53;;;;;;;4.30;1.63;;;20.80;51.10;;;;;;5143201;27;20429;-91
2022/07/12 01:53:21;;;;;;;1.60;1.50;;;20.80;51.20;;;;;;5112780;27;20448;-89
2022/07/12 01:55:48;;;;;;;2.00;1.90;;;20.80;51.40;;;;;;5144724;27;20441;-89
2022/07/12 01:58:18;;;;;;;2.20;1.63;;;20.70;51.30;;;;;;5131515;27;20713;-88
2022/07/12 02:00:50;;;;;;;1.60;1.50;;;20.70;51.40;;;;;;5091358;27;20816;-89
2022/07/12 02:03:18;;;;;;;1.37;1.27;;;20.60;52.10;;;;;;5140597;27;20497;-88
2022/07/12 02:05:45;;;;;;;2.03;1.83;;;20.60;52.00;;;;;;5131267;27;20453;-88
2022/07/12 02:08:13;;;;;;;2.00;1.90;;;20.60;52.10;;;;;;5110067;27;20530;-88
2022/07/12 02:10:40;;;;;;;1.60;1.50;;;20.60;52.00;;;;;;5111365;27;20490;-87
2022/07/12 02:13:07;;;;;;;1.90;1.60;;;20.60;51.90;;;;;;5127275;27;20452;-87
2022/07/12 02:15:35;;;;;;;2.50;1.80;;;20.60;52.10;;;;;;5128884;27;21081;-89
2022/07/12 02:18:02;;;;;;;1.63;1.53;;;20.60;52.30;;;;;;5145263;27;20491;-86
2022/07/12 02:20:29;;;;;;;1.87;1.53;;;20.60;52.20;;;;;;5128460;27;20475;-90
2022/07/12 02:22:56;;;;;;;1.63;1.53;;;20.50;52.10;;;;;;5129412;27;20452;-88
2022/07/12 02:25:23;;;;;;;1.80;1.50;;;20.40;51.70;;;;;;5111123;27;20452;-89
2022/07/12 02:27:50;;;;;;;1.90;1.70;;;20.40;51.70;;;;;;5144091;27;20517;-89
2022/07/12 02:30:17;;;;;;;1.77;1.67;;;20.40;51.50;;;;;;5142964;27;20465;-91
2022/07/12 02:32:45;;;;;;;1.87;1.77;;;20.40;51.70;;;;;;5126696;27;20604;-88
2022/07/12 02:35:12;;;;;;;1.57;1.47;;;20.40;51.60;;;;;;5108987;27;20457;-90
2022/07/12 02:37:39;;;;;;;2.27;1.83;;;20.40;51.50;;;;;;5108640;27;20967;-87
2022/07/12 02:42:52;;;;;;;1.70;1.60;;;20.40;51.50;;;;;;5111792;27;20441;-88
2022/07/12 02:45:19;;;;;;;1.77;1.67;;;20.30;51.20;;;;;;5127830;27;20445;-89
2022/07/12 02:47:47;;;;;;;2.90;1.60;;;20.30;51.20;;;;;;5111380;27;20449;-89
2022/07/12 02:50:14;;;;;;;2.20;2.00;;;20.30;51.20;;;;;;5140743;27;20461;-90
2022/07/12 02:52:41;;;;;;;2.40;2.20;;;20.30;51.10;;;;;;5108999;27;20449;-88
2022/07/12 02:55:09;;;;;;;2.10;1.90;;;20.30;51.20;;;;;;5127908;27;20522;-92
2022/07/12 02:57:36;;;;;;;1.90;1.80;;;20.30;51.20;;;;;;5094251;27;20443;-88
2022/07/12 03:00:04;;;;;;;2.00;1.80;;;20.20;51.30;;;;;;5109582;27;20453;-88
2022/07/12 03:02:31;;;;;;;2.37;2.00;;;20.10;51.20;;;;;;5129569;27;20453;-90
2022/07/12 03:05:00;;;;;;;2.33;2.00;;;20.10;51.50;;;;;;5104170;27;20516;-89
2022/07/12 03:07:27;;;;;;;2.30;1.40;;;20.10;52.30;;;;;;5128424;27;20513;-91
2022/07/12 03:09:54;;;;;;;1.83;1.73;;;20.00;51.90;;;;;;5106487;27;20501;-90
2022/07/12 03:12:21;;;;;;;1.83;1.60;;;20.00;52.30;;;;;;5094596;27;21187;-89
2022/07/12 03:14:48;;;;;;;1.70;1.60;;;20.00;52.20;;;;;;5113097;27;20449;-89
2022/07/12 03:17:15;;;;;;;1.80;1.70;;;20.00;52.10;;;;;;5124421;27;20454;-89
2022/07/12 03:19:42;;;;;;;2.77;1.90;;;20.00;52.10;;;;;;5098235;27;20469;-89
2022/07/12 03:22:11;;;;;;;2.33;2.13;;;20.00;51.80;;;;;;5142518;27;20960;-90
2022/07/12 03:24:38;;;;;;;2.00;1.80;;;20.00;52.00;;;;;;5083147;27;20449;-90
2022/07/12 03:27:05;;;;;;;3.80;2.30;;;19.90;51.80;;;;;;5107661;27;20542;-90
2022/07/12 03:29:32;;;;;;;2.37;2.17;;;19.90;51.70;;;;;;5102449;27;20545;-90
2022/07/12 03:31:59;;;;;;;1.97;1.77;;;20.00;51.70;;;;;;5128931;27;20794;-89
2022/07/12 03:34:26;;;;;;;1.90;1.80;;;19.90;51.50;;;;;;5111273;27;20453;-89
2022/07/12 03:36:53;;;;;;;2.90;1.70;;;19.90;51.70;;;;;;5092040;27;20475;-88
2022/07/12 03:39:22;;;;;;;1.93;1.83;;;19.90;51.70;;;;;;5107482;27;20456;-90
2022/07/12 03:41:49;;;;;;;2.40;2.00;;;19.90;51.60;;;;;;5123520;27;20437;-89
2022/07/12 03:44:16;;;;;;;3.03;1.67;;;19.80;51.60;;;;;;5108449;27;20444;-88
2022/07/12 03:46:43;;;;;;;2.90;1.70;;;19.80;51.90;;;;;;5125697;27;20930;-89
2022/07/12 03:49:10;;;;;;;2.27;2.07;;;19.80;51.90;;;;;;5125953;27;20809;-89
2022/07/12 03:51:37;;;;;;;2.10;1.63;;;19.70;51.90;;;;;;5092613;27;20530;-91
2022/07/12 03:54:05;;;;;;;1.83;1.73;;;19.70;52.40;;;;;;5125268;27;20536;-89
2022/07/12 03:59:17;;;;;;;3.43;1.77;;;19.70;52.60;;;;;;5098909;27;20480;-89
2022/07/12 04:01:44;;;;;;;2.13;1.93;;;19.70;52.50;;;;;;5110207;27;20513;-88
2022/07/12 04:04:11;;;;;;;2.50;1.60;;;19.70;52.90;;;;;;5111114;27;20880;-89
2022/07/12 04:06:38;;;;;;;2.20;2.03;;;19.70;52.70;;;;;;5131148;27;20470;-88
2022/07/12 04:09:06;;;;;;;2.40;2.20;;;19.70;52.80;;;;;;5128931;27;20477;-89
2022/07/12 04:11:38;;;;;;;2.43;1.60;;;19.70;52.80;;;;;;5128686;27;20445;-89
2022/07/12 04:14:30;;;;;;;1.83;1.60;;;19.70;52.90;;;;;;5111649;27;20453;-87
2022/07/12 04:16:58;;;;;;;2.13;1.93;;;19.70;53.00;;;;;;5145405;27;20453;-88
2022/07/12 04:19:27;;;;;;;1.83;1.73;;;19.70;52.80;;;;;;5099266;27;20461;-90
2022/07/12 04:21:55;;;;;;;1.90;1.80;;;19.60;52.70;;;;;;5086375;27;20453;-89
2022/07/12 04:24:23;;;;;;;2.50;2.10;;;19.60;52.80;;;;;;5106666;27;20456;-89
2022/07/12 04:26:51;;;;;;;2.37;2.17;;;19.60;53.00;;;;;;5120860;27;20456;-89
2022/07/12 04:29:20;;;;;;;2.07;1.87;;;19.70;53.10;;;;;;5123181;27;20467;-89
2022/07/12 04:31:47;;;;;;;2.23;2.03;;;19.40;54.10;;;;;;5109795;27;20501;-90
2022/07/12 04:34:16;;;;;;;2.63;2.43;;;19.10;55.00;;;;;;5121418;27;20464;-88
2022/07/12 04:36:44;;;;;;;3.27;2.97;;;19.00;55.30;;;;;;5109659;27;20518;-91
2022/07/12 04:39:14;;;;;;;4.40;4.00;;;19.20;55.10;;;;;;5106994;27;20512;-90
2022/07/12 04:41:42;;;;;;;3.40;2.90;;;19.30;55.20;;;;;;5107542;27;20490;-89
2022/07/12 04:48:18;;;;;;;2.97;2.67;;;19.50;54.00;;;;;;5142887;27;20448;-89
2022/07/12 04:50:45;;;;;;;3.00;2.70;;;19.50;54.00;;;;;;5093282;27;20816;-89
2022/07/12 04:53:12;;;;;;;2.73;2.53;;;19.60;53.80;;;;;;5124885;27;20525;-90
2022/07/12 04:55:39;;;;;;;2.50;2.20;;;19.60;53.70;;;;;;5109039;27;20469;-89
2022/07/12 04:58:31;;;;;;;2.93;2.73;;;19.60;53.60;;;;;;5106115;27;20479;-90
2022/07/12 05:00:58;;;;;;;5.73;2.17;;;19.70;53.60;;;;;;5132638;27;20816;-88
2022/07/12 05:03:26;;;;;;;2.70;2.30;;;19.70;53.60;;;;;;5112818;27;20449;-89
2022/07/12 05:06:19;;;;;;;2.40;2.20;;;19.70;53.70;;;;;;5123015;27;20456;-89
2022/07/12 05:08:46;;;;;;;2.30;2.10;;;19.70;54.00;;;;;;5111401;27;20465;-89
2022/07/12 05:11:13;;;;;;;2.30;2.10;;;19.70;53.90;;;;;;5122803;27;21352;-89
2022/07/12 05:13:40;;;;;;;2.67;2.47;;;19.80;54.00;;;;;;5113733;27;20441;-88
2022/07/12 05:19:02;;;;;;;2.53;2.33;;;19.80;54.40;;;;;;5109283;27;20462;-89
2022/07/12 05:21:29;;;;;;;3.90;2.83;;;19.80;54.70;;;;;;5108412;27;20834;-88
2022/07/12 05:23:56;;;;;;;2.90;2.03;;;19.80;54.90;;;;;;5107551;27;21271;-88
2022/07/12 05:26:23;;;;;;;2.83;2.57;;;19.80;55.00;;;;;;5111593;27;20449;-88
2022/07/12 05:28:50;;;;;;;11.00;3.00;;;19.90;54.90;;;;;;5121409;27;20473;-88
2022/07/12 05:31:17;;;;;;;3.10;2.80;;;20.00;55.00;;;;;;5142513;27;20478;-89
2022/07/12 05:33:44;;;;;;;3.73;2.70;;;20.00;54.90;;;;;;5109402;27;20436;-89
2022/07/12 05:36:12;;;;;;;2.90;2.47;;;20.10;54.90;;;;;;5142308;27;20441;-88
2022/07/12 05:38:39;;;;;;;3.10;2.40;;;20.10;54.80;;;;;;5131448;27;20467;-89
2022/07/12 05:41:06;;;;;;;2.90;2.70;;;20.20;54.90;;;;;;5129809;27;20983;-89
2022/07/12 05:47:42;;;;;;;3.23;2.97;;;20.10;55.20;;;;;;5108427;27;20448;-88
2022/07/12 05:54:17;;;;;;;2.87;2.63;;;19.90;55.70;;;;;;5129704;27;20413;-89
2022/07/12 06:00:50;;;;;;;2.80;2.60;;;20.00;56.00;;;;;;5150715;27;20497;-89
2022/07/12 06:07:24;;;;;;;3.30;3.00;;;20.40;55.80;;;;;;5132999;27;20432;-89
2022/07/12 06:09:52;;;;;;;2.77;2.57;;;20.50;55.60;;;;;;5111510;27;20469;-89
2022/07/12 06:12:19;;;;;;;2.83;2.50;;;20.70;55.10;;;;;;5109317;27;20531;-89
2022/07/12 06:18:54;;;;;;;5.53;2.93;;;20.80;55.20;;;;;;5127072;27;20493;-87
2022/07/12 06:21:21;;;;;;;5.00;2.30;;;20.80;55.10;;;;;;5128151;27;20489;-89
2022/07/12 06:23:48;;;;;;;2.20;2.03;;;20.90;55.20;;;;;;5113527;27;20449;-88
2022/07/12 06:29:34;;;;;;;2.27;2.07;;;20.80;55.30;;;;;;5130185;27;20465;-88
2022/07/12 06:36:08;;;;;;;1.70;1.60;;;20.90;55.80;;;;;;5130297;27;20810;-88
2022/07/12 06:38:35;;;;;;;2.30;2.10;;;21.10;56.10;;;;;;5114657;27;20471;-88
2022/07/12 06:41:02;;;;;;;2.10;1.90;;;21.40;55.70;;;;;;5112185;27;20431;-87
2022/07/12 06:51:45;;;;;;;1.80;1.70;;;22.30;53.30;;;;;;5125858;27;20548;-90
2022/07/12 06:54:37;;;;;;;1.83;1.73;;;22.20;53.80;;;;;;5105309;27;20592;-89
2022/07/12 06:57:05;;;;;;;2.00;1.90;;;22.10;53.90;;;;;;5126160;27;20548;-88
2022/07/12 06:59:32;;;;;;;2.23;2.13;;;22.00;54.70;;;;;;5144531;27;20473;-89
2022/07/12 07:01:59;;;;;;;3.27;2.13;;;22.10;54.30;;;;;;5126978;27;20443;-87
2022/07/12 07:04:26;;;;;;;2.53;2.17;;;22.40;54.40;;;;;;5141438;27;20467;-88
2022/07/12 07:06:54;;;;;;;3.53;2.07;;;22.60;53.60;;;;;;5124472;27;20445;-88
2022/07/12 07:09:21;;;;;;;2.07;1.87;;;22.90;53.20;;;;;;5138042;27;20777;-89
2022/07/12 07:11:48;;;;;;;2.87;1.70;;;22.90;52.90;;;;;;5126569;27;20448;-88
2022/07/12 07:14:15;;;;;;;1.80;1.60;;;23.20;53.00;;;;;;5122572;27;21294;-88
2022/07/12 07:16:42;;;;;;;2.33;1.70;;;23.30;52.10;;;;;;5136230;27;20452;-89
2022/07/12 07:19:09;;;;;;;1.90;1.70;;;23.50;51.80;;;;;;5123226;27;20576;-87
2022/07/12 07:21:36;;;;;;;4.33;1.97;;;23.80;51.70;;;;;;5126138;27;20472;-89
2022/07/12 07:24:30;;;;;;;2.97;1.80;;;24.20;51.20;;;;;;5142755;27;21250;-87
2022/07/12 07:26:58;;;;;;;3.07;1.60;;;24.30;50.50;;;;;;5135468;27;20444;-88
2022/07/12 07:33:01;;;;;;;1.40;1.30;;;24.30;50.60;;;;;;5113643;27;20673;-87
2022/07/12 07:36:19;;;;;;;1.70;1.60;;;24.30;50.60;;;;;;5143452;27;20453;-87
2022/07/12 07:38:46;;;;;;;2.33;1.53;;;24.50;50.80;;;;;;5143181;27;20473;-90
2022/07/12 07:41:15;;;;;;;1.80;1.70;;;24.80;50.10;;;;;;5144840;27;20535;-90
2022/07/12 07:44:32;;;;;;;1.90;1.80;;;24.80;49.50;;;;;;5141392;27;20453;-88
2022/07/12 08:00:38;;;;;;;1.67;1.57;;;25.00;48.30;;;;;;5094814;27;20447;-87
2022/07/12 08:03:06;;;;;;;2.13;1.70;;;25.20;47.90;;;;;;5137693;27;20533;-87
2022/07/12 08:14:58;;;;;;;2.50;1.50;;;25.50;47.60;;;;;;5120319;27;20472;-88
2022/07/12 08:18:16;;;;;;;2.37;1.50;;;25.60;47.60;;;;;;5140310;27;20479;-87
2022/07/12 08:20:45;;;;;;;1.40;1.30;;;25.70;47.30;;;;;;5137199;27;20547;-90
2022/07/12 08:23:12;;;;;;;1.83;1.70;;;25.50;47.50;;;;;;5108948;27;20498;-87
2022/07/12 08:25:39;;;;;;;1.70;1.60;;;25.60;46.90;;;;;;5126369;27;20455;-90
2022/07/12 08:28:32;;;;;;;3.80;1.57;;;25.50;47.50;;;;;;5124706;27;20850;-88
2022/07/12 08:30:59;;;;;;;2.70;1.67;;;25.60;46.90;;;;;;5138971;27;20712;-90
2022/07/12 08:33:26;;;;;;;1.87;1.57;;;25.20;47.60;;;;;;5087801;27;20518;-87
2022/07/12 08:38:45;;;;;;;3.37;1.70;;;25.20;47.50;;;;;;5123510;27;20547;-89
2022/07/12 08:41:13;;;;;;;2.70;1.70;;;25.10;47.40;;;;;;5117931;27;20938;-91
2022/07/12 08:44:30;;;;;;;5.40;2.10;;;25.30;47.50;;;;;;5140459;27;20456;-87
2022/07/12 08:46:57;;;;;;;3.50;1.80;;;25.40;46.40;;;;;;5099172;27;20459;-87
2022/07/12 08:49:24;;;;;;;2.93;1.63;;;25.50;46.70;;;;;;5119254;27;20482;-86
2022/07/12 08:52:27;;;;;;;1.60;1.50;;;25.60;45.90;;;;;;5140148;27;21193;-88
2022/07/12 08:54:54;;;;;;;2.37;1.90;;;25.70;45.60;;;;;;5141015;27;20459;-87
2022/07/12 08:57:30;;;;;;;3.50;2.57;;;25.70;46.30;;;;;;5137377;27;20531;-86
2022/07/12 09:00:00;;;;;;;2.80;2.27;;;25.90;45.40;;;;;;5137056;27;20465;-85
2022/07/12 09:02:27;;;;;;;4.13;1.70;;;26.30;45.90;;;;;;5114422;27;20529;-88
2022/07/12 09:08:30;;;;;;;2.60;1.70;;;27.20;44.00;;;;;;5139219;27;21183;-88
2022/07/12 09:11:00;;;;;;;4.43;2.00;;;27.50;42.50;;;;;;5137218;27;20525;-88
2022/07/12 09:13:46;;;;;;;1.60;1.50;;;27.60;41.90;;;;;;5094773;27;20453;-88
2022/07/12 09:16:14;;;;;;;1.80;1.70;;;27.80;42.30;;;;;;5121469;27;20463;-89
2022/07/12 09:19:32;;;;;;;1.47;1.37;;;28.00;41.70;;;;;;5139552;27;20465;-88
2022/07/12 09:21:59;;;;;;;1.60;1.50;;;28.10;40.80;;;;;;5138796;27;21408;-88
2022/07/12 09:24:29;;;;;;;2.90;1.43;;;28.20;39.60;;;;;;5120407;27;20489;-88
2022/07/12 09:27:00;;;;;;;2.53;1.77;;;28.20;38.80;;;;;;5139174;27;20453;-91
2022/07/12 09:29:27;;;;;;;3.30;1.40;;;28.50;39.00;;;;;;5127972;27;20468;-88
2022/07/12 09:37:50;;;;;;;1.50;1.40;;;28.50;38.40;;;;;;5128682;27;20433;-88
2022/07/12 09:40:18;;;;;;;1.50;1.40;;;28.30;37.80;;;;;;5115724;27;20460;-88
2022/07/12 09:42:47;;;;;;;1.40;1.30;;;27.90;38.60;;;;;;5127437;27;20429;-87
2022/07/12 09:45:14;;;;;;;1.77;1.50;;;28.10;39.60;;;;;;5108019;27;20448;-89
2022/07/12 09:48:32;;;;;;;1.93;1.67;;;28.50;38.30;;;;;;5144723;27;20447;-87
2022/07/12 09:51:26;;;;;;;1.33;1.23;;;28.70;36.40;;;;;;5142980;27;20464;-88
2022/07/12 09:53:54;;;;;;;2.10;1.47;;;28.40;37.60;;;;;;5146104;27;20803;-89
2022/07/12 09:56:23;;;;;;;1.57;1.47;;;28.60;37.30;;;;;;5126455;27;20441;-89
2022/07/12 09:58:53;;;;;;;1.63;1.53;;;28.90;35.70;;;;;;5126870;27;20913;-85
2022/07/12 10:01:21;;;;;;;1.53;1.43;;;29.00;37.50;;;;;;5147274;27;20468;-88
2022/07/12 10:03:49;;;;;;;2.90;1.50;;;28.90;37.60;;;;;;5110437;27;20441;-88
2022/07/12 10:06:25;;;;;;;1.63;1.53;;;29.30;36.60;;;;;;5124052;27;20461;-90
2022/07/12 10:08:53;;;;;;;1.63;1.53;;;29.50;35.00;;;;;;5101335;27;20894;-88
2022/07/12 10:11:22;;;;;;;4.10;1.50;;;29.50;35.40;;;;;;5146526;27;20487;-87
2022/07/12 10:13:50;;;;;;;1.60;1.50;;;29.00;35.40;;;;;;5112213;27;20466;-87
2022/07/12 10:16:24;;;;;;;5.77;1.80;;;29.20;36.90;;;;;;5129524;27;20946;-88
2022/07/12 10:19:22;;;;;;;1.90;1.80;;;29.60;35.10;;;;;;5124676;27;20843;-87
2022/07/12 10:21:50;;;;;;;2.13;1.47;;;29.80;34.60;;;;;;5143280;27;20504;-87
2022/07/12 10:24:55;;;;;;;1.20;1.10;;;29.90;34.40;;;;;;5144053;27;20450;-87
2022/07/12 10:27:31;;;;;;;1.60;1.50;;;30.00;35.00;;;;;;5146905;27;20816;-87
2022/07/12 10:30:17;;;;;;;1.27;1.17;;;30.30;34.20;;;;;;5122229;27;21095;-87
2022/07/12 10:33:35;;;;;;;2.03;1.40;;;30.50;33.30;;;;;;5142560;27;20453;-86
2022/07/12 10:37:11;;;;;;;1.40;1.30;;;30.80;33.40;;;;;;5143239;27;20445;-89
2022/07/12 10:39:38;;;;;;;1.30;1.10;;;31.10;32.00;;;;;;5142181;27;20487;-88
2022/07/12 10:42:16;;;;;;;1.93;1.80;;;31.20;32.00;;;;;;5138745;27;20967;-90
2022/07/12 10:44:47;;;;;;;2.27;1.53;;;31.00;32.60;;;;;;5144019;27;20488;-87
2022/07/12 10:47:17;;;;;;;1.67;1.57;;;31.10;32.30;;;;;;5144393;27;20477;-87
2022/07/12 10:49:49;;;;;;;1.37;1.27;;;31.30;31.90;;;;;;5126337;27;20726;-87
2022/07/12 11:00:09;;;;;;;1.50;1.40;;;31.40;31.60;;;;;;5124638;27;20465;-89
2022/07/12 11:02:36;;;;;;;1.27;1.17;;;31.80;30.70;;;;;;5121758;27;20431;-87
2022/07/12 11:05:04;;;;;;;1.33;1.23;;;31.80;29.80;;;;;;5130757;27;20483;-87
2022/07/12 11:11:40;;;;;;;1.47;1.37;;;31.60;31.00;;;;;;5124818;27;20462;-86
2022/07/12 11:14:07;;;;;;;2.50;1.40;;;31.30;30.30;;;;;;5109755;27;20472;-86
2022/07/12 11:16:43;;;;;;;1.43;1.30;;;31.10;31.10;;;;;;5125194;27;20476;-86
2022/07/12 11:19:10;;;;;;;1.40;1.30;;;30.80;30.60;;;;;;5121412;27;21192;-89
2022/07/12 11:21:37;;;;;;;1.73;1.63;;;30.70;30.60;;;;;;5115317;27;20461;-86
2022/07/12 11:24:17;;;;;;;1.30;1.20;;;30.60;32.20;;;;;;5144391;27;20448;-87
2022/07/12 11:26:45;;;;;;;1.23;1.13;;;30.90;30.80;;;;;;5142117;27;20951;-86
2022/07/12 11:29:12;;;;;;;1.43;1.33;;;31.00;30.90;;;;;;5142351;27;20577;-87
2022/07/12 11:31:41;;;;;;;1.33;1.23;;;31.10;30.60;;;;;;5130431;27;20480;-87
2022/07/12 11:34:08;;;;;;;1.80;1.23;;;31.30;31.70;;;;;;5139957;27;20446;-87
2022/07/12 11:36:35;;;;;;;1.40;1.30;;;31.30;30.70;;;;;;5122465;27;20449;-87
2022/07/12 11:39:02;;;;;;;2.13;1.30;;;31.40;30.30;;;;;;5122696;27;20477;-86
2022/07/12 11:41:29;;;;;;;1.40;1.27;;;31.10;30.40;;;;;;5138546;27;20824;-87
2022/07/12 11:43:57;;;;;;;2.90;1.40;;;31.40;30.50;;;;;;5143187;27;20452;-89
2022/07/12 11:46:24;;;;;;;2.17;1.50;;;31.50;30.00;;;;;;5146479;27;20506;-87
2022/07/12 11:48:52;;;;;;;1.50;1.40;;;31.60;29.70;;;;;;5145943;27;20471;-86
2022/07/12 11:51:19;;;;;;;1.60;1.50;;;31.90;30.00;;;;;;5106427;27;20457;-86
2022/07/12 11:58:04;;;;;;;1.77;1.43;;;32.00;29.70;;;;;;5136417;27;20425;-85
2022/07/12 12:00:31;;;;;;;1.50;1.40;;;32.70;29.20;;;;;;5125361;27;20966;-87
2022/07/12 12:02:58;;;;;;;1.30;1.20;;;32.70;27.80;;;;;;5108322;27;20441;-86
2022/07/12 12:05:27;;;;;;;2.03;1.23;;;32.40;28.90;;;;;;5139716;27;20528;-87
2022/07/12 12:07:54;;;;;;;1.40;1.30;;;32.20;28.80;;;;;;5089676;27;20452;-87
2022/07/12 12:10:21;;;;;;;1.87;1.50;;;32.10;29.30;;;;;;5138899;27;20447;-89
2022/07/12 12:12:51;;;;;;;1.20;1.10;;;32.20;29.40;;;;;;5124170;27;20475;-88
2022/07/12 12:15:19;;;;;;;1.30;1.20;;;32.20;28.00;;;;;;5121958;27;20521;-87
2022/07/12 12:17:52;;;;;;;1.30;1.20;;;32.40;28.10;;;;;;5119461;27;20791;-87
2022/07/12 12:20:20;;;;;;;1.20;1.10;;;32.80;27.90;;;;;;5112637;27;20532;-87
2022/07/12 12:22:50;;;;;;;1.20;1.10;;;32.80;28.20;;;;;;5140953;27;20464;-87
2022/07/12 12:25:18;;;;;;;1.27;1.17;;;33.00;28.10;;;;;;5119520;27;21134;-88
2022/07/12 12:27:46;;;;;;;1.60;1.50;;;33.10;27.80;;;;;;5126043;27;20446;-87
2022/07/12 12:30:14;;;;;;;1.30;1.20;;;33.10;28.20;;;;;;5142786;27;20452;-87
2022/07/12 12:32:46;;;;;;;1.67;1.30;;;33.10;28.20;;;;;;5138733;27;20986;-88
2022/07/12 12:35:14;;;;;;;1.50;1.40;;;33.20;27.90;;;;;;5142436;27;20456;-87
2022/07/12 12:37:41;;;;;;;1.30;1.20;;;33.10;27.40;;;;;;5098495;27;20533;-86
2022/07/12 12:40:11;;;;;;;1.30;1.20;;;32.90;28.10;;;;;;5140180;27;20541;-87
2022/07/12 12:42:38;;;;;;;1.40;1.30;;;32.90;26.80;;;;;;5121409;27;20466;-88
2022/07/12 12:45:06;;;;;;;1.87;1.50;;;33.00;27.20;;;;;;5123824;27;20534;-87
2022/07/12 12:47:58;;;;;;;1.50;1.30;;;32.50;27.70;;;;;;5139834;27;20449;-87
2022/07/12 12:50:43;;;;;;;1.40;1.30;;;32.30;29.10;;;;;;5121391;27;20444;-88
2022/07/12 12:53:15;;;;;;;1.30;1.20;;;32.50;28.10;;;;;;5142009;27;20469;-87
2022/07/12 12:55:46;;;;;;;1.30;1.20;;;32.80;28.40;;;;;;5138598;27;20933;-88
2022/07/12 13:18:49;;;;;;;1.23;1.13;;;34.00;27.20;;;;;;5119071;27;20971;-88
2022/07/12 13:21:17;;;;;;;1.50;1.40;;;33.90;26.80;;;;;;5143261;27;20445;-87
2022/07/12 13:23:45;;;;;;;1.50;1.40;;;33.40;27.20;;;;;;5110548;27;20540;-87
2022/07/12 13:47:32;;;;;;;3.63;1.40;;;33.50;27.00;;;;;;5144094;27;20464;-86
2022/07/12 13:49:59;;;;;;;1.40;1.30;;;33.50;27.40;;;;;;5141862;27;20548;-87
2022/07/12 13:53:16;;;;;;;1.33;1.23;;;33.30;27.80;;;;;;5136855;27;20915;-87
2022/07/12 13:56:10;;;;;;;1.20;1.10;;;33.50;27.00;;;;;;5134984;27;20441;-87
2022/07/12 14:06:53;;;;;;;1.30;1.20;;;34.30;26.00;;;;;;5119011;27;20480;-87
2022/07/12 14:09:20;;;;;;;1.23;1.13;;;34.10;26.00;;;;;;5132363;27;20469;-87
2022/07/12 14:11:49;;;;;;;1.30;1.20;;;33.60;26.30;;;;;;5120062;27;20470;-88
2022/07/12 14:14:17;;;;;;;1.17;1.07;;;33.70;27.00;;;;;;5137119;27;20464;-89
2022/07/12 14:17:02;;;;;;;1.50;1.33;;;33.90;26.50;;;;;;5141952;27;20465;-89
2022/07/12 14:19:29;;;;;;;2.33;1.10;;;34.00;26.70;;;;;;5107795;27;20579;-87
2022/07/12 14:21:56;;;;;;;1.97;1.33;;;34.30;26.40;;;;;;5107570;27;21081;-87
2022/07/12 14:24:23;;;;;;;1.23;1.13;;;34.30;25.90;;;;;;5123930;27;20463;-88
2022/07/12 14:43:20;;;;;;;1.30;1.20;;;33.60;26.10;;;;;;5144462;27;20920;-87
2022/07/12 14:45:47;;;;;;;1.30;1.20;;;33.80;26.30;;;;;;5143933;27;20465;-87
2022/07/12 14:56:01;;;;;;;2.13;1.20;;;34.10;25.70;;;;;;5100298;27;20906;-89
2022/07/12 14:58:30;;;;;;;1.20;1.10;;;33.80;26.30;;;;;;5112825;27;20607;-87
2022/07/12 15:00:57;;;;;;;1.30;1.10;;;33.70;26.60;;;;;;5141371;27;20623;-87
2022/07/12 15:04:14;;;;;;;1.37;1.27;;;33.80;26.70;;;;;;5107107;27;21287;-87
2022/07/12 15:07:58;;;;;;;2.43;1.10;;;34.00;25.90;;;;;;5119513;27;20564;-89
2022/07/12 15:10:25;;;;;;;1.40;1.30;;;34.50;25.90;;;;;;5134466;27;20457;-88
2022/07/12 15:12:52;;;;;;;1.30;1.20;;;34.20;25.70;;;;;;5120509;27;21051;-88
2022/07/12 15:15:21;;;;;;;1.30;1.20;;;34.00;25.50;;;;;;5112553;27;20516;-88
2022/07/12 15:17:48;;;;;;;1.20;1.10;;;34.20;26.10;;;;;;5102759;27;20505;-87
2022/07/12 15:20:15;;;;;;;1.33;1.23;;;34.50;25.70;;;;;;5119302;27;20449;-88
2022/07/12 15:22:42;;;;;;;1.33;1.23;;;34.50;25.90;;;;;;5145026;27;20456;-88
2022/07/12 15:25:10;;;;;;;1.20;1.10;;;34.60;25.80;;;;;;5103027;27;20440;-87
2022/07/12 15:27:37;;;;;;;1.47;1.37;;;34.60;25.40;;;;;;5143261;27;20445;-88
2022/07/12 15:30:04;;;;;;;1.20;1.10;;;34.70;25.10;;;;;;5140033;27;20553;-87
2022/07/12 15:33:23;;;;;;;1.10;1.00;;;34.80;25.70;;;;;;5141343;27;20496;-88
2022/07/12 15:36:20;;;;;;;1.23;1.13;;;34.50;25.10;;;;;;5140462;27;20574;-85
2022/07/12 15:38:47;;;;;;;1.30;1.20;;;34.50;25.10;;;;;;5138111;27;20476;-86
2022/07/12 15:41:15;;;;;;;1.00;0.97;;;34.40;25.20;;;;;;5104414;27;20544;-87
2022/07/12 15:43:43;;;;;;;1.40;1.30;;;34.30;25.20;;;;;;5143014;27;20845;-85
2022/07/12 15:46:11;;;;;;;1.27;1.17;;;34.20;25.40;;;;;;5135309;27;20440;-87
2022/07/12 15:48:40;;;;;;;4.67;1.30;;;33.90;26.00;;;;;;5122625;27;20466;-85
2022/07/12 15:51:08;;;;;;;1.20;1.10;;;33.40;26.80;;;;;;5137537;27;20532;-87
2022/07/12 15:53:36;;;;;;;1.37;1.27;;;33.30;26.60;;;;;;5111471;27;20472;-87
2022/07/12 15:56:04;;;;;;;1.43;1.33;;;33.40;26.80;;;;;;5104359;27;20461;-85
2022/07/12 15:58:34;;;;;;;1.27;1.17;;;33.50;26.80;;;;;;5121878;27;20471;-88
2022/07/12 16:01:02;;;;;;;1.77;1.20;;;33.60;26.20;;;;;;5121652;27;20471;-86
2022/07/12 16:07:38;;;;;;;1.20;1.10;;;33.90;26.30;;;;;;5122897;27;20421;-86
2022/07/12 16:10:07;;;;;;;1.40;1.30;;;33.80;26.10;;;;;;5082788;27;20457;-85
2022/07/12 16:12:35;;;;;;;1.80;1.17;;;33.80;25.70;;;;;;5121921;27;20472;-86